sensor_id;sensor_type;location;lat;lon;timestamp;pressure;altitude;pressure_sealevel;temperature;humidity
49529;BME280;35423;37.320;-121.762;2023-11-18T00:01:08;99352.81;;;26.27;25.15
49529;BME280;35423;37.320;-121.762;2023-11-18T00:03:33;99344.36;;;26.44;25.17
49529;BME280;35423;37.320;-121.762;2023-11-18T00:05:58;99338.40;;;26.63;25.15
49529;BME280;35423;37.320;-121.762;2023-11-18T00:08:26;99329.46;;;26.42;25.07
49529;BME280;35423;37.320;-121.762;2023-11-18T00:10:52;99332.61;;;26.64;24.95
49529;BME280;35423;37.320;-121.762;2023-11-18T00:13:18;99335.40;;;26.31;24.99
49529;BME280;35423;37.320;-121.762;2023-11-18T00:15:45;99337.22;;;27.01;24.88
49529;BME280;35423;37.320;-121.762;2023-11-18T00:18:11;99335.96;;;26.38;25.02
49529;BME280;35423;37.320;-121.762;2023-11-18T00:20:37;99340.37;;;26.42;25.03
49529;BME280;35423;37.320;-121.762;2023-11-18T00:23:08;99338.74;;;26.35;25.22
49529;BME280;35423;37.320;-121.762;2023-11-18T00:25:33;99340.73;;;26.37;25.24
49529;BME280;35423;37.320;-121.762;2023-11-18T00:27:59;99337.12;;;25.42;25.25
49529;BME280;35423;37.320;-121.762;2023-11-18T00:30:25;99339.14;;;26.38;24.91
49529;BME280;35423;37.320;-121.762;2023-11-18T00:32:51;99334.71;;;25.71;24.91
49529;BME280;35423;37.320;-121.762;2023-11-18T00:35:19;99331.31;;;25.95;24.92
49529;BME280;35423;37.320;-121.762;2023-11-18T00:37:46;99333.55;;;25.92;24.95
49529;BME280;35423;37.320;-121.762;2023-11-18T00:40:12;99329.20;;;25.96;25.04
49529;BME280;35423;37.320;-121.762;2023-11-18T00:42:42;99322.82;;;26.41;25.12
49529;BME280;35423;37.320;-121.762;2023-11-18T00:45:09;99327.41;;;26.38;25.13
49529;BME280;35423;37.320;-121.762;2023-11-18T00:47:39;99331.96;;;26.05;25.21
49529;BME280;35423;37.320;-121.762;2023-11-18T00:50:04;99334.50;;;26.21;25.02
49529;BME280;35423;37.320;-121.762;2023-11-18T00:52:29;99333.41;;;26.15;25.12
49529;BME280;35423;37.320;-121.762;2023-11-18T00:54:57;99332.18;;;26.18;25.13
49529;BME280;35423;37.320;-121.762;2023-11-18T00:57:22;99332.85;;;26.46;25.00
49529;BME280;35423;37.320;-121.762;2023-11-18T00:59:59;99335.50;;;26.45;24.93
49529;BME280;35423;37.320;-121.762;2023-11-18T01:02:25;99328.35;;;26.41;24.86
49529;BME280;35423;37.320;-121.762;2023-11-18T01:04:52;99328.78;;;26.45;25.02
49529;BME280;35423;37.320;-121.762;2023-11-18T01:07:18;99326.94;;;26.14;25.05
49529;BME280;35423;37.320;-121.762;2023-11-18T01:09:48;99321.78;;;26.15;24.93
49529;BME280;35423;37.320;-121.762;2023-11-18T01:12:13;99321.15;;;25.48;24.87
49529;BME280;35423;37.320;-121.762;2023-11-18T01:14:39;99320.95;;;26.22;24.87
49529;BME280;35423;37.320;-121.762;2023-11-18T01:17:12;99319.10;;;26.18;25.03
49529;BME280;35423;37.320;-121.762;2023-11-18T01:19:34;99318.27;;;26.19;25.19
49529;BME280;35423;37.320;-121.762;2023-11-18T01:22:03;99311.75;;;26.58;25.61
49529;BME280;35423;37.320;-121.762;2023-11-18T01:24:32;99319.25;;;26.15;25.82
49529;BME280;35423;37.320;-121.762;2023-11-18T01:27:00;99319.55;;;26.52;25.92
49529;BME280;35423;37.320;-121.762;2023-11-18T01:29:25;99322.38;;;25.60;25.92
49529;BME280;35423;37.320;-121.762;2023-11-18T01:31:51;99323.89;;;25.85;25.79
49529;BME280;35423;37.320;-121.762;2023-11-18T01:34:19;99325.93;;;26.04;25.79
49529;BME280;35423;37.320;-121.762;2023-11-18T01:36:49;99324.35;;;26.49;25.77
49529;BME280;35423;37.320;-121.762;2023-11-18T01:39:15;99325.75;;;25.97;25.83
49529;BME280;35423;37.320;-121.762;2023-11-18T01:41:43;99320.06;;;26.11;25.92
49529;BME280;35423;37.320;-121.762;2023-11-18T01:44:10;99323.26;;;25.45;25.86
49529;BME280;35423;37.320;-121.762;2023-11-18T01:46:38;99320.12;;;26.47;25.69
49529;BME280;35423;37.320;-121.762;2023-11-18T01:49:03;99323.14;;;26.49;25.72
49529;BME280;35423;37.320;-121.762;2023-11-18T01:51:35;99321.82;;;26.11;25.70
49529;BME280;35423;37.320;-121.762;2023-11-18T01:54:04;99323.61;;;26.54;25.69
49529;BME280;35423;37.320;-121.762;2023-11-18T01:56:31;99327.51;;;26.08;25.72
49529;BME280;35423;37.320;-121.762;2023-11-18T01:58:57;99325.03;;;26.45;25.92
49529;BME280;35423;37.320;-121.762;2023-11-18T02:01:24;99332.25;;;25.93;26.02
49529;BME280;35423;37.320;-121.762;2023-11-18T02:03:54;99345.23;;;26.46;26.01
49529;BME280;35423;37.320;-121.762;2023-11-18T02:06:26;99345.91;;;26.33;26.15
49529;BME280;35423;37.320;-121.762;2023-11-18T02:08:53;99342.05;;;26.24;26.28
49529;BME280;35423;37.320;-121.762;2023-11-18T02:11:26;99340.78;;;25.52;26.41
49529;BME280;35423;37.320;-121.762;2023-11-18T02:13:45;99340.47;;;25.77;26.51
49529;BME280;35423;37.320;-121.762;2023-11-18T02:16:11;99338.68;;;25.69;26.61
49529;BME280;35423;37.320;-121.762;2023-11-18T02:18:35;99336.83;;;25.68;26.66
49529;BME280;35423;37.320;-121.762;2023-11-18T02:21:03;99333.76;;;25.96;26.60
49529;BME280;35423;37.320;-121.762;2023-11-18T02:23:26;99333.78;;;25.53;26.68
49529;BME280;35423;37.320;-121.762;2023-11-18T02:25:52;99336.07;;;25.93;26.67
49529;BME280;35423;37.320;-121.762;2023-11-18T02:28:16;99328.25;;;25.38;26.72
49529;BME280;35423;37.320;-121.762;2023-11-18T02:30:45;99332.77;;;25.78;26.68
49529;BME280;35423;37.320;-121.762;2023-11-18T02:33:17;99329.44;;;25.27;26.69
49529;BME280;35423;37.320;-121.762;2023-11-18T02:35:38;99335.27;;;25.69;26.67
49529;BME280;35423;37.320;-121.762;2023-11-18T02:38:03;99339.75;;;25.12;26.73
49529;BME280;35423;37.320;-121.762;2023-11-18T02:40:32;99338.32;;;25.40;26.63
49529;BME280;35423;37.320;-121.762;2023-11-18T02:42:55;99347.57;;;25.58;26.55
49529;BME280;35423;37.320;-121.762;2023-11-18T02:45:19;99353.14;;;24.90;26.76
49529;BME280;35423;37.320;-121.762;2023-11-18T02:47:45;99355.28;;;24.68;26.67
49529;BME280;35423;37.320;-121.762;2023-11-18T02:50:10;99360.05;;;24.78;26.48
49529;BME280;35423;37.320;-121.762;2023-11-18T02:52:37;99358.83;;;25.46;26.47
49529;BME280;35423;37.320;-121.762;2023-11-18T02:55:06;99363.66;;;25.15;26.19
49529;BME280;35423;37.320;-121.762;2023-11-18T02:57:32;99364.44;;;25.36;26.07
49529;BME280;35423;37.320;-121.762;2023-11-18T02:59:59;99356.62;;;25.29;25.74
49529;BME280;35423;37.320;-121.762;2023-11-18T03:02:28;99353.87;;;25.43;25.73
49529;BME280;35423;37.320;-121.762;2023-11-18T03:05:13;99351.76;;;25.57;25.75
49529;BME280;35423;37.320;-121.762;2023-11-18T03:07:32;99355.47;;;25.52;25.68
49529;BME280;35423;37.320;-121.762;2023-11-18T03:09:58;99356.29;;;25.54;25.52
49529;BME280;35423;37.320;-121.762;2023-11-18T03:12:24;99356.36;;;25.39;25.53
49529;BME280;35423;37.320;-121.762;2023-11-18T03:14:49;99358.74;;;25.27;25.61
49529;BME280;35423;37.320;-121.762;2023-11-18T03:17:14;99359.78;;;24.86;25.46
49529;BME280;35423;37.320;-121.762;2023-11-18T03:19:46;99360.63;;;25.26;25.40
49529;BME280;35423;37.320;-121.762;2023-11-18T03:22:15;99359.20;;;24.61;25.26
49529;BME280;35423;37.320;-121.762;2023-11-18T03:24:44;99363.34;;;25.42;25.11
49529;BME280;35423;37.320;-121.762;2023-11-18T03:27:09;99366.51;;;25.02;25.13
49529;BME280;35423;37.320;-121.762;2023-11-18T03:29:38;99364.72;;;25.48;25.10
49529;BME280;35423;37.320;-121.762;2023-11-18T03:32:04;99364.59;;;25.53;25.05
49529;BME280;35423;37.320;-121.762;2023-11-18T03:34:29;99370.71;;;25.15;24.81
49529;BME280;35423;37.320;-121.762;2023-11-18T03:36:55;99377.79;;;25.63;24.84
49529;BME280;35423;37.320;-121.762;2023-11-18T03:39:25;99382.72;;;25.65;24.70
49529;BME280;35423;37.320;-121.762;2023-11-18T03:41:50;99378.59;;;25.64;24.68
49529;BME280;35423;37.320;-121.762;2023-11-18T03:44:17;99381.29;;;25.21;24.77
49529;BME280;35423;37.320;-121.762;2023-11-18T03:46:43;99373.89;;;25.66;24.83
49529;BME280;35423;37.320;-121.762;2023-11-18T03:49:12;99379.51;;;25.71;24.75
49529;BME280;35423;37.320;-121.762;2023-11-18T03:51:39;99380.09;;;25.70;24.65
49529;BME280;35423;37.320;-121.762;2023-11-18T03:54:06;99383.91;;;25.79;24.77
49529;BME280;35423;37.320;-121.762;2023-11-18T03:56:31;99397.28;;;25.56;24.81
49529;BME280;35423;37.320;-121.762;2023-11-18T03:58:59;99403.31;;;25.60;25.40
49529;BME280;35423;37.320;-121.762;2023-11-18T04:01:30;99398.45;;;25.36;26.17
49529;BME280;35423;37.320;-121.762;2023-11-18T04:03:59;99386.89;;;25.48;26.15
49529;BME280;35423;37.320;-121.762;2023-11-18T04:06:27;99385.47;;;25.33;26.14
49529;BME280;35423;37.320;-121.762;2023-11-18T04:08:50;99380.97;;;25.23;26.24
49529;BME280;35423;37.320;-121.762;2023-11-18T04:11:17;99376.14;;;24.77;26.21
49529;BME280;35423;37.320;-121.762;2023-11-18T04:13:46;99375.96;;;25.21;26.07
49529;BME280;35423;37.320;-121.762;2023-11-18T04:16:12;99378.62;;;24.83;25.84
49529;BME280;35423;37.320;-121.762;2023-11-18T04:18:35;99392.27;;;24.80;25.78
49529;BME280;35423;37.320;-121.762;2023-11-18T04:21:01;99388.75;;;24.92;25.78
49529;BME280;35423;37.320;-121.762;2023-11-18T04:23:25;99391.89;;;25.05;25.79
49529;BME280;35423;37.320;-121.762;2023-11-18T04:25:52;99394.91;;;25.50;25.76
49529;BME280;35423;37.320;-121.762;2023-11-18T04:28:19;99395.01;;;25.00;25.77
49529;BME280;35423;37.320;-121.762;2023-11-18T04:30:46;99397.08;;;24.97;25.70
49529;BME280;35423;37.320;-121.762;2023-11-18T04:33:13;99396.53;;;24.74;25.63
49529;BME280;35423;37.320;-121.762;2023-11-18T04:35:40;99401.16;;;25.15;25.61
49529;BME280;35423;37.320;-121.762;2023-11-18T04:38:10;99405.03;;;24.33;25.62
49529;BME280;35423;37.320;-121.762;2023-11-18T04:40:38;99403.92;;;25.08;25.51
49529;BME280;35423;37.320;-121.762;2023-11-18T04:43:05;99402.14;;;24.36;25.40
49529;BME280;35423;37.320;-121.762;2023-11-18T04:45:30;99395.89;;;25.01;25.23
49529;BME280;35423;37.320;-121.762;2023-11-18T04:47:59;99389.14;;;24.16;25.02
49529;BME280;35423;37.320;-121.762;2023-11-18T04:50:27;99392.62;;;25.00;24.47
49529;BME280;35423;37.320;-121.762;2023-11-18T04:52:53;99394.98;;;24.71;24.37
49529;BME280;35423;37.320;-121.762;2023-11-18T04:55:18;99397.11;;;25.31;24.34
49529;BME280;35423;37.320;-121.762;2023-11-18T04:57:46;99399.37;;;24.88;24.57
49529;BME280;35423;37.320;-121.762;2023-11-18T05:00:14;99390.79;;;24.59;24.62
49529;BME280;35423;37.320;-121.762;2023-11-18T05:02:43;99391.55;;;24.95;24.56
49529;BME280;35423;37.320;-121.762;2023-11-18T05:05:09;99398.79;;;24.87;24.60
49529;BME280;35423;37.320;-121.762;2023-11-18T05:07:34;99397.01;;;24.69;24.78
49529;BME280;35423;37.320;-121.762;2023-11-18T05:10:03;99395.71;;;24.68;24.75
49529;BME280;35423;37.320;-121.762;2023-11-18T05:12:27;99399.35;;;24.64;24.80
49529;BME280;35423;37.320;-121.762;2023-11-18T05:14:52;99399.89;;;24.87;24.81
49529;BME280;35423;37.320;-121.762;2023-11-18T05:17:17;99406.01;;;24.85;24.84
49529;BME280;35423;37.320;-121.762;2023-11-18T05:19:47;99408.71;;;25.07;24.88
49529;BME280;35423;37.320;-121.762;2023-11-18T05:22:13;99411.92;;;24.25;24.98
49529;BME280;35423;37.320;-121.762;2023-11-18T05:24:38;99417.21;;;24.56;24.90
49529;BME280;35423;37.320;-121.762;2023-11-18T05:27:08;99421.33;;;24.17;24.86
49529;BME280;35423;37.320;-121.762;2023-11-18T05:29:50;99424.02;;;24.92;24.21
49529;BME280;35423;37.320;-121.762;2023-11-18T05:32:17;99424.92;;;24.99;24.08
49529;BME280;35423;37.320;-121.762;2023-11-18T05:34:45;99427.64;;;24.95;24.27
49529;BME280;35423;37.320;-121.762;2023-11-18T05:37:12;99427.98;;;24.44;24.57
49529;BME280;35423;37.320;-121.762;2023-11-18T05:39:46;99421.87;;;25.04;24.70
49529;BME280;35423;37.320;-121.762;2023-11-18T05:42:13;99423.03;;;24.63;24.83
49529;BME280;35423;37.320;-121.762;2023-11-18T05:44:38;99424.06;;;24.87;24.86
49529;BME280;35423;37.320;-121.762;2023-11-18T05:47:07;99422.55;;;25.15;24.78
49529;BME280;35423;37.320;-121.762;2023-11-18T05:49:47;99417.37;;;24.64;24.79
49529;BME280;35423;37.320;-121.762;2023-11-18T05:52:19;99424.68;;;24.43;24.76
49529;BME280;35423;37.320;-121.762;2023-11-18T05:54:52;99420.06;;;24.70;24.75
49529;BME280;35423;37.320;-121.762;2023-11-18T05:57:22;99424.62;;;24.68;24.75
49529;BME280;35423;37.320;-121.762;2023-11-18T06:00:03;99430.24;;;24.94;24.83
49529;BME280;35423;37.320;-121.762;2023-11-18T06:02:33;99430.95;;;24.18;24.91
49529;BME280;35423;37.320;-121.762;2023-11-18T06:04:55;99430.86;;;24.57;24.79
49529;BME280;35423;37.320;-121.762;2023-11-18T06:07:19;99433.91;;;24.81;24.74
49529;BME280;35423;37.320;-121.762;2023-11-18T06:09:48;99425.87;;;24.97;24.88
49529;BME280;35423;37.320;-121.762;2023-11-18T06:12:14;99422.92;;;24.84;25.04
49529;BME280;35423;37.320;-121.762;2023-11-18T06:14:42;99422.45;;;24.70;25.21
49529;BME280;35423;37.320;-121.762;2023-11-18T06:17:08;99418.51;;;24.45;25.20
49529;BME280;35423;37.320;-121.762;2023-11-18T06:19:38;99416.56;;;24.41;25.28
49529;BME280;35423;37.320;-121.762;2023-11-18T06:22:03;99417.36;;;24.90;25.27
49529;BME280;35423;37.320;-121.762;2023-11-18T06:24:33;99424.83;;;24.68;25.31
49529;BME280;35423;37.320;-121.762;2023-11-18T06:27:02;99435.84;;;24.97;25.29
49529;BME280;35423;37.320;-121.762;2023-11-18T06:29:39;99431.22;;;24.80;25.26
49529;BME280;35423;37.320;-121.762;2023-11-18T06:32:04;99436.83;;;25.00;25.27
49529;BME280;35423;37.320;-121.762;2023-11-18T06:34:36;99440.93;;;24.90;25.46
49529;BME280;35423;37.320;-121.762;2023-11-18T06:37:02;99442.90;;;24.33;25.57
49529;BME280;35423;37.320;-121.762;2023-11-18T06:39:32;99443.00;;;24.57;25.64
49529;BME280;35423;37.320;-121.762;2023-11-18T06:41:59;99441.03;;;24.57;25.69
49529;BME280;35423;37.320;-121.762;2023-11-18T06:44:26;99440.57;;;24.37;25.66
49529;BME280;35423;37.320;-121.762;2023-11-18T06:46:54;99435.08;;;24.85;25.69
49529;BME280;35423;37.320;-121.762;2023-11-18T06:49:21;99432.74;;;24.27;25.81
49529;BME280;35423;37.320;-121.762;2023-11-18T06:51:53;99433.60;;;24.50;25.85
49529;BME280;35423;37.320;-121.762;2023-11-18T06:54:30;99433.00;;;24.67;25.94
49529;BME280;35423;37.320;-121.762;2023-11-18T06:56:55;99430.90;;;24.63;25.94
49529;BME280;35423;37.320;-121.762;2023-11-18T06:59:23;99431.43;;;24.39;25.96
49529;BME280;35423;37.320;-121.762;2023-11-18T07:01:48;99433.35;;;24.93;25.89
49529;BME280;35423;37.320;-121.762;2023-11-18T07:04:16;99433.03;;;24.62;25.94
49529;BME280;35423;37.320;-121.762;2023-11-18T07:06:41;99432.39;;;24.59;25.94
49529;BME280;35423;37.320;-121.762;2023-11-18T07:09:09;99429.14;;;24.31;25.99
49529;BME280;35423;37.320;-121.762;2023-11-18T07:11:34;99428.61;;;24.57;25.97
49529;BME280;35423;37.320;-121.762;2023-11-18T07:14:02;99425.29;;;24.67;25.86
49529;BME280;35423;37.320;-121.762;2023-11-18T07:16:29;99430.80;;;24.47;25.79
49529;BME280;35423;37.320;-121.762;2023-11-18T07:18:54;99433.57;;;24.74;25.74
49529;BME280;35423;37.320;-121.762;2023-11-18T07:21:24;99441.04;;;24.71;25.74
49529;BME280;35423;37.320;-121.762;2023-11-18T07:23:50;99444.52;;;24.66;25.79
49529;BME280;35423;37.320;-121.762;2023-11-18T07:26:15;99438.91;;;24.01;25.74
49529;BME280;35423;37.320;-121.762;2023-11-18T07:28:44;99434.26;;;24.64;25.76
49529;BME280;35423;37.320;-121.762;2023-11-18T07:31:09;99431.37;;;24.22;25.69
49529;BME280;35423;37.320;-121.762;2023-11-18T07:33:38;99433.40;;;24.49;25.66
49529;BME280;35423;37.320;-121.762;2023-11-18T07:36:04;99431.04;;;24.71;25.62
49529;BME280;35423;37.320;-121.762;2023-11-18T07:38:28;99435.13;;;24.49;25.63
49529;BME280;35423;37.320;-121.762;2023-11-18T07:40:54;99432.06;;;24.80;25.52
49529;BME280;35423;37.320;-121.762;2023-11-18T07:43:21;99435.54;;;23.58;25.53
49529;BME280;35423;37.320;-121.762;2023-11-18T07:45:47;99438.15;;;24.14;25.30
49529;BME280;35423;37.320;-121.762;2023-11-18T07:48:15;99437.22;;;24.36;25.07
49529;BME280;35423;37.320;-121.762;2023-11-18T07:50:41;99438.91;;;24.89;24.92
49529;BME280;35423;37.320;-121.762;2023-11-18T07:53:08;99436.13;;;24.41;25.13
49529;BME280;35423;37.320;-121.762;2023-11-18T07:55:33;99438.56;;;25.02;25.24
49529;BME280;35423;37.320;-121.762;2023-11-18T07:57:59;99437.88;;;24.90;25.37
49529;BME280;35423;37.320;-121.762;2023-11-18T08:00:24;99436.16;;;24.32;25.45
49529;BME280;35423;37.320;-121.762;2023-11-18T08:02:50;99427.23;;;24.42;25.35
49529;BME280;35423;37.320;-121.762;2023-11-18T08:05:16;99427.36;;;23.93;25.34
49529;BME280;35423;37.320;-121.762;2023-11-18T08:07:41;99423.53;;;24.75;25.44
49529;BME280;35423;37.320;-121.762;2023-11-18T08:10:11;99423.34;;;24.12;25.33
49529;BME280;35423;37.320;-121.762;2023-11-18T08:12:35;99429.04;;;24.72;25.41
49529;BME280;35423;37.320;-121.762;2023-11-18T08:15:03;99435.09;;;24.57;25.34
49529;BME280;35423;37.320;-121.762;2023-11-18T08:17:27;99437.20;;;24.55;25.35
49529;BME280;35423;37.320;-121.762;2023-11-18T08:19:54;99437.82;;;24.55;25.33
49529;BME280;35423;37.320;-121.762;2023-11-18T08:22:19;99435.29;;;24.29;25.31
49529;BME280;35423;37.320;-121.762;2023-11-18T08:24:52;99437.89;;;24.80;25.28
49529;BME280;35423;37.320;-121.762;2023-11-18T08:27:28;99434.94;;;24.14;25.42
49529;BME280;35423;37.320;-121.762;2023-11-18T08:30:00;99433.48;;;24.47;25.43
49529;BME280;35423;37.320;-121.762;2023-11-18T08:32:26;99428.44;;;24.39;25.24
49529;BME280;35423;37.320;-121.762;2023-11-18T08:34:51;99430.34;;;24.52;25.14
49529;BME280;35423;37.320;-121.762;2023-11-18T08:37:20;99430.17;;;24.18;25.08
49529;BME280;35423;37.320;-121.762;2023-11-18T08:39:49;99425.77;;;24.69;25.04
49529;BME280;35423;37.320;-121.762;2023-11-18T08:42:24;99430.22;;;24.91;25.12
49529;BME280;35423;37.320;-121.762;2023-11-18T08:44:57;99431.76;;;24.87;25.17
49529;BME280;35423;37.320;-121.762;2023-11-18T08:47:24;99434.68;;;24.63;25.20
49529;BME280;35423;37.320;-121.762;2023-11-18T08:50:10;99439.44;;;24.09;25.31
49529;BME280;35423;37.320;-121.762;2023-11-18T08:52:35;99434.68;;;24.88;25.45
49529;BME280;35423;37.320;-121.762;2023-11-18T08:55:03;99435.65;;;24.89;25.54
49529;BME280;35423;37.320;-121.762;2023-11-18T08:57:30;99430.95;;;24.36;25.59
49529;BME280;35423;37.320;-121.762;2023-11-18T08:59:55;99423.56;;;24.72;25.74
49529;BME280;35423;37.320;-121.762;2023-11-18T09:02:22;99414.54;;;24.34;25.92
49529;BME280;35423;37.320;-121.762;2023-11-18T09:04:46;99411.08;;;24.55;25.93
49529;BME280;35423;37.320;-121.762;2023-11-18T09:07:12;99411.40;;;23.72;26.06
49529;BME280;35423;37.320;-121.762;2023-11-18T09:09:38;99412.39;;;24.52;26.01
49529;BME280;35423;37.320;-121.762;2023-11-18T09:12:03;99408.87;;;24.44;26.12
49529;BME280;35423;37.320;-121.762;2023-11-18T09:14:29;99410.54;;;24.28;26.06
49529;BME280;35423;37.320;-121.762;2023-11-18T09:16:56;99412.96;;;24.56;26.01
49529;BME280;35423;37.320;-121.762;2023-11-18T09:19:24;99412.76;;;24.30;26.04
49529;BME280;35423;37.320;-121.762;2023-11-18T09:21:49;99416.78;;;24.20;26.16
49529;BME280;35423;37.320;-121.762;2023-11-18T09:24:16;99415.76;;;24.29;26.30
49529;BME280;35423;37.320;-121.762;2023-11-18T09:26:45;99417.65;;;24.22;26.37
49529;BME280;35423;37.320;-121.762;2023-11-18T09:29:10;99414.07;;;23.71;26.38
49529;BME280;35423;37.320;-121.762;2023-11-18T09:31:36;99409.38;;;24.23;26.34
49529;BME280;35423;37.320;-121.762;2023-11-18T09:34:03;99415.16;;;24.31;26.27
49529;BME280;35423;37.320;-121.762;2023-11-18T09:36:29;99417.67;;;24.28;26.29
49529;BME280;35423;37.320;-121.762;2023-11-18T09:38:54;99419.44;;;24.27;26.30
49529;BME280;35423;37.320;-121.762;2023-11-18T09:41:22;99418.22;;;23.69;26.36
49529;BME280;35423;37.320;-121.762;2023-11-18T09:43:46;99411.02;;;24.34;26.50
49529;BME280;35423;37.320;-121.762;2023-11-18T09:46:14;99407.76;;;23.63;26.45
49529;BME280;35423;37.320;-121.762;2023-11-18T09:48:42;99404.06;;;24.16;26.42
49529;BME280;35423;37.320;-121.762;2023-11-18T09:51:07;99397.98;;;24.33;26.48
49529;BME280;35423;37.320;-121.762;2023-11-18T09:53:36;99398.61;;;24.03;26.50
49529;BME280;35423;37.320;-121.762;2023-11-18T09:56:03;99398.71;;;24.05;26.46
49529;BME280;35423;37.320;-121.762;2023-11-18T09:58:25;99397.58;;;23.92;26.59
49529;BME280;35423;37.320;-121.762;2023-11-18T10:00:53;99400.94;;;24.08;26.73
49529;BME280;35423;37.320;-121.762;2023-11-18T10:03:17;99398.41;;;23.44;26.59
49529;BME280;35423;37.320;-121.762;2023-11-18T10:05:44;99401.99;;;23.97;26.61
49529;BME280;35423;37.320;-121.762;2023-11-18T10:08:09;99402.31;;;23.79;26.59
49529;BME280;35423;37.320;-121.762;2023-11-18T10:10:39;99403.86;;;24.33;26.56
49529;BME280;35423;37.320;-121.762;2023-11-18T10:13:05;99400.06;;;23.99;26.66
49529;BME280;35423;37.320;-121.762;2023-11-18T10:15:30;99401.13;;;24.06;26.65
49529;BME280;35423;37.320;-121.762;2023-11-18T10:17:57;99398.03;;;23.91;26.87
49529;BME280;35423;37.320;-121.762;2023-11-18T10:20:25;99398.64;;;23.92;27.12
49529;BME280;35423;37.320;-121.762;2023-11-18T10:22:50;99398.31;;;24.11;27.26
49529;BME280;35423;37.320;-121.762;2023-11-18T10:25:23;99405.94;;;23.59;27.42
49529;BME280;35423;37.320;-121.762;2023-11-18T10:27:49;99406.44;;;23.55;27.49
49529;BME280;35423;37.320;-121.762;2023-11-18T10:30:11;99404.84;;;23.59;27.49
49529;BME280;35423;37.320;-121.762;2023-11-18T10:32:36;99399.06;;;24.29;27.52
49529;BME280;35423;37.320;-121.762;2023-11-18T10:35:04;99398.24;;;24.31;27.53
49529;BME280;35423;37.320;-121.762;2023-11-18T10:37:30;99400.66;;;23.85;27.50
49529;BME280;35423;37.320;-121.762;2023-11-18T10:39:57;99392.26;;;24.07;27.57
49529;BME280;35423;37.320;-121.762;2023-11-18T10:42:25;99400.69;;;23.81;27.57
49529;BME280;35423;37.320;-121.762;2023-11-18T10:44:56;99396.61;;;24.31;27.54
49529;BME280;35423;37.320;-121.762;2023-11-18T10:47:17;99390.58;;;23.80;27.56
49529;BME280;35423;37.320;-121.762;2023-11-18T10:49:50;99393.08;;;24.19;27.62
49529;BME280;35423;37.320;-121.762;2023-11-18T10:52:12;99390.25;;;23.63;27.73
49529;BME280;35423;37.320;-121.762;2023-11-18T10:54:42;99391.75;;;23.91;27.78
49529;BME280;35423;37.320;-121.762;2023-11-18T10:57:07;99382.72;;;23.69;27.71
49529;BME280;35423;37.320;-121.762;2023-11-18T10:59:33;99383.94;;;24.04;27.84
49529;BME280;35423;37.320;-121.762;2023-11-18T11:02:00;99379.87;;;24.13;27.77
49529;BME280;35423;37.320;-121.762;2023-11-18T11:04:24;99382.27;;;24.07;27.82
49529;BME280;35423;37.320;-121.762;2023-11-18T11:06:50;99382.26;;;23.95;27.97
49529;BME280;35423;37.320;-121.762;2023-11-18T11:09:17;99384.86;;;23.61;28.13
49529;BME280;35423;37.320;-121.762;2023-11-18T11:11:51;99379.03;;;23.66;28.10
49529;BME280;35423;37.320;-121.762;2023-11-18T11:14:13;99375.41;;;23.41;28.13
49529;BME280;35423;37.320;-121.762;2023-11-18T11:16:42;99372.71;;;23.91;28.09
49529;BME280;35423;37.320;-121.762;2023-11-18T11:19:07;99375.73;;;23.86;28.14
49529;BME280;35423;37.320;-121.762;2023-11-18T11:21:30;99373.40;;;23.35;28.17
49529;BME280;35423;37.320;-121.762;2023-11-18T11:24:00;99371.48;;;24.07;28.13
49529;BME280;35423;37.320;-121.762;2023-11-18T11:26:32;99362.18;;;23.37;28.13
49529;BME280;35423;37.320;-121.762;2023-11-18T11:28:52;99357.65;;;23.85;28.12
49529;BME280;35423;37.320;-121.762;2023-11-18T11:31:20;99345.27;;;23.09;28.13
49529;BME280;35423;37.320;-121.762;2023-11-18T11:33:46;99350.87;;;23.68;27.97
49529;BME280;35423;37.320;-121.762;2023-11-18T11:36:11;99345.10;;;23.35;27.77
49529;BME280;35423;37.320;-121.762;2023-11-18T11:38:37;99333.19;;;23.79;27.82
49529;BME280;35423;37.320;-121.762;2023-11-18T11:41:05;99325.84;;;23.83;27.73
49529;BME280;35423;37.320;-121.762;2023-11-18T11:43:31;99319.56;;;23.80;27.69
49529;BME280;35423;37.320;-121.762;2023-11-18T11:45:59;99315.64;;;23.51;27.73
49529;BME280;35423;37.320;-121.762;2023-11-18T11:48:24;99320.91;;;23.72;27.74
49529;BME280;35423;37.320;-121.762;2023-11-18T11:51:04;99324.12;;;24.00;27.66
49529;BME280;35423;37.320;-121.762;2023-11-18T11:53:21;99340.02;;;23.50;27.63
49529;BME280;35423;37.320;-121.762;2023-11-18T11:55:49;99339.77;;;23.89;27.45
49529;BME280;35423;37.320;-121.762;2023-11-18T12:00:36;99354.70;;;24.19;27.30
49529;BME280;35423;37.320;-121.762;2023-11-18T12:03:05;99365.36;;;24.06;27.21
49529;BME280;35423;37.320;-121.762;2023-11-18T12:05:29;99373.17;;;24.04;27.30
49529;BME280;35423;37.320;-121.762;2023-11-18T12:07:54;99377.42;;;23.75;27.36
49529;BME280;35423;37.320;-121.762;2023-11-18T12:10:19;99386.85;;;23.85;27.26
49529;BME280;35423;37.320;-121.762;2023-11-18T12:12:46;99391.13;;;23.85;27.25
49529;BME280;35423;37.320;-121.762;2023-11-18T12:15:14;99398.91;;;23.79;27.10
49529;BME280;35423;37.320;-121.762;2023-11-18T12:29:55;99446.48;;;22.41;32.08
49529;BME280;35423;37.320;-121.762;2023-11-18T12:34:54;99464.70;;;22.08;33.22
49529;BME280;35423;37.320;-121.762;2023-11-18T12:42:09;99462.95;;;22.08;34.79
49529;BME280;35423;37.320;-121.762;2023-11-18T12:44:36;99454.90;;;21.93;35.04
49529;BME280;35423;37.320;-121.762;2023-11-18T12:47:04;99447.26;;;22.25;35.31
49529;BME280;35423;37.320;-121.762;2023-11-18T12:49:28;99446.44;;;21.28;35.32
49529;BME280;35423;37.320;-121.762;2023-11-18T12:51:55;99438.86;;;21.64;35.57